sensor_id;sensor_type;location;lat;lon;timestamp;pressure;altitude;pressure_sealevel;temperature;humidity
44079;BME280;29744;49.078;12.878;2023-04-15T00:04:27;95123.91;;;15.12;34.90
44079;BME280;29744;49.078;12.878;2023-04-15T00:09:27;95113.47;;;15.11;35.01
44079;BME280;29744;49.078;12.878;2023-04-15T00:14:27;95113.03;;;15.09;35.40
44079;BME280;29744;49.078;12.878;2023-04-15T00:19:28;95105.28;;;15.07;35.04
44079;BME280;29744;49.078;12.878;2023-04-15T00:24:29;95097.91;;;15.04;35.09
44079;BME280;29744;49.078;12.878;2023-04-15T00:29:30;95104.44;;;15.03;35.48
44079;BME280;29744;49.078;12.878;2023-04-15T00:34:30;95097.50;;;15.02;35.00
44079;BME280;29744;49.078;12.878;2023-04-15T00:39:31;95091.63;;;15.00;35.50
44079;BME280;29744;49.078;12.878;2023-04-15T00:44:32;95097.41;;;14.99;35.15
44079;BME280;29744;49.078;12.878;2023-04-15T00:49:32;95092.34;;;14.97;35.35
44079;BME280;29744;49.078;12.878;2023-04-15T00:54:33;95088.47;;;14.95;35.05
44079;BME280;29744;49.078;12.878;2023-04-15T00:59:33;95087.25;;;14.92;35.44
44079;BME280;29744;49.078;12.878;2023-04-15T01:04:34;95083.78;;;14.92;35.06
44079;BME280;29744;49.078;12.878;2023-04-15T01:09:35;95080.66;;;14.90;35.69
44079;BME280;29744;49.078;12.878;2023-04-15T01:14:35;95089.09;;;14.88;35.66
44079;BME280;29744;49.078;12.878;2023-04-15T01:19:36;95083.28;;;14.86;35.16
44079;BME280;29744;49.078;12.878;2023-04-15T01:24:36;95088.69;;;14.86;35.55
44079;BME280;29744;49.078;12.878;2023-04-15T01:29:37;95076.69;;;14.83;35.37
44079;BME280;29744;49.078;12.878;2023-04-15T01:34:37;95085.91;;;14.82;35.50
44079;BME280;29744;49.078;12.878;2023-04-15T01:39:37;95080.88;;;14.81;35.32
44079;BME280;29744;49.078;12.878;2023-04-15T01:44:38;95083.16;;;14.79;35.36
44079;BME280;29744;49.078;12.878;2023-04-15T01:49:38;95079.69;;;14.78;35.72
44079;BME280;29744;49.078;12.878;2023-04-15T01:54:39;95080.81;;;14.77;35.80
44079;BME280;29744;49.078;12.878;2023-04-15T01:59:40;95075.78;;;14.76;35.86
44079;BME280;29744;49.078;12.878;2023-04-15T02:04:41;95076.13;;;14.74;35.66
44079;BME280;29744;49.078;12.878;2023-04-15T02:09:41;95077.28;;;14.73;35.63
44079;BME280;29744;49.078;12.878;2023-04-15T02:14:42;95074.94;;;14.72;35.86
44079;BME280;29744;49.078;12.878;2023-04-15T02:19:42;95078.75;;;14.71;35.66
44079;BME280;29744;49.078;12.878;2023-04-15T02:24:43;95075.28;;;14.70;35.42
44079;BME280;29744;49.078;12.878;2023-04-15T02:29:45;95080.25;;;14.68;35.55
44079;BME280;29744;49.078;12.878;2023-04-15T02:34:45;95083.31;;;14.67;35.69
44079;BME280;29744;49.078;12.878;2023-04-15T02:39:45;95081.75;;;14.66;35.63
44079;BME280;29744;49.078;12.878;2023-04-15T02:44:46;95075.56;;;14.65;35.75
44079;BME280;29744;49.078;12.878;2023-04-15T02:49:46;95092.91;;;14.64;35.45
44079;BME280;29744;49.078;12.878;2023-04-15T02:54:46;95089.00;;;14.62;35.50
44079;BME280;29744;49.078;12.878;2023-04-15T02:59:47;95094.75;;;14.60;35.67
44079;BME280;29744;49.078;12.878;2023-04-15T03:04:47;95092.06;;;14.60;35.59
44079;BME280;29744;49.078;12.878;2023-04-15T03:09:48;95093.19;;;14.59;35.46
44079;BME280;29744;49.078;12.878;2023-04-15T03:14:48;95099.72;;;14.58;35.89
44079;BME280;29744;49.078;12.878;2023-04-15T03:19:49;95106.59;;;14.56;35.90
44079;BME280;29744;49.078;12.878;2023-04-15T03:24:49;95096.94;;;14.55;35.63
44079;BME280;29744;49.078;12.878;2023-04-15T03:29:49;95105.81;;;14.55;35.56
44079;BME280;29744;49.078;12.878;2023-04-15T03:34:50;95103.47;;;14.54;35.69
44079;BME280;29744;49.078;12.878;2023-04-15T03:39:50;95100.00;;;14.53;35.86
44079;BME280;29744;49.078;12.878;2023-04-15T03:44:51;95098.09;;;14.54;35.69
44079;BME280;29744;49.078;12.878;2023-04-15T03:49:51;95099.66;;;14.55;35.91
44079;BME280;29744;49.078;12.878;2023-04-15T03:54:51;95105.13;;;14.58;35.69
44079;BME280;29744;49.078;12.878;2023-04-15T03:59:52;95097.16;;;14.65;35.65
44079;BME280;29744;49.078;12.878;2023-04-15T04:04:52;95098.06;;;14.73;35.47
44079;BME280;29744;49.078;12.878;2023-04-15T04:09:52;95095.94;;;14.82;35.70
44079;BME280;29744;49.078;12.878;2023-04-15T04:14:52;95106.16;;;14.92;35.70
44079;BME280;29744;49.078;12.878;2023-04-15T04:19:53;95102.53;;;15.04;35.44
44079;BME280;29744;49.078;12.878;2023-04-15T04:24:53;95101.59;;;15.16;35.41
44079;BME280;29744;49.078;12.878;2023-04-15T04:29:53;95104.88;;;15.28;35.54
44079;BME280;29744;49.078;12.878;2023-04-15T04:34:53;95108.97;;;15.41;34.94
44079;BME280;29744;49.078;12.878;2023-04-15T04:39:54;95109.91;;;15.53;34.86
44079;BME280;29744;49.078;12.878;2023-04-15T04:44:54;95105.09;;;15.65;35.39
44079;BME280;29744;49.078;12.878;2023-04-15T04:49:54;95115.72;;;15.77;34.92
44079;BME280;29744;49.078;12.878;2023-04-15T04:54:55;95121.31;;;15.88;34.63
44079;BME280;29744;49.078;12.878;2023-04-15T04:59:55;95112.94;;;15.97;34.81
44079;BME280;29744;49.078;12.878;2023-04-15T05:04:55;95123.50;;;16.05;34.77
44079;BME280;29744;49.078;12.878;2023-04-15T05:09:56;95112.78;;;16.13;34.66
44079;BME280;29744;49.078;12.878;2023-04-15T05:14:56;95117.44;;;16.16;34.61
44079;BME280;29744;49.078;12.878;2023-04-15T05:19:56;95102.06;;;16.20;34.63
44079;BME280;29744;49.078;12.878;2023-04-15T05:24:57;95105.59;;;16.24;34.85
44079;BME280;29744;49.078;12.878;2023-04-15T05:29:57;95106.78;;;16.26;34.22
44079;BME280;29744;49.078;12.878;2023-04-15T05:34:57;95105.25;;;16.29;34.64
44079;BME280;29744;49.078;12.878;2023-04-15T05:39:57;95114.16;;;16.29;34.58
44079;BME280;29744;49.078;12.878;2023-04-15T05:44:58;95114.16;;;16.29;34.26
44079;BME280;29744;49.078;12.878;2023-04-15T05:49:58;95121.50;;;16.29;34.45
44079;BME280;29744;49.078;12.878;2023-04-15T05:54:58;95123.41;;;16.28;34.33
44079;BME280;29744;49.078;12.878;2023-04-15T05:59:58;95134.59;;;16.27;34.13
44079;BME280;29744;49.078;12.878;2023-04-15T06:04:59;95141.53;;;16.24;34.60
44079;BME280;29744;49.078;12.878;2023-04-15T06:09:59;95144.59;;;16.23;34.14
44079;BME280;29744;49.078;12.878;2023-04-15T06:15:00;95144.19;;;16.21;34.54
44079;BME280;29744;49.078;12.878;2023-04-15T06:20:01;95144.91;;;16.18;34.48
44079;BME280;29744;49.078;12.878;2023-04-15T06:25:01;95137.94;;;16.17;34.29
44079;BME280;29744;49.078;12.878;2023-04-15T06:30:03;95131.34;;;16.14;34.70
44079;BME280;29744;49.078;12.878;2023-04-15T06:35:03;95149.50;;;16.14;34.14
44079;BME280;29744;49.078;12.878;2023-04-15T06:40:05;95153.75;;;16.15;34.34
44079;BME280;29744;49.078;12.878;2023-04-15T06:45:05;95156.09;;;16.16;34.35
44079;BME280;29744;49.078;12.878;2023-04-15T06:50:06;95155.72;;;16.18;34.31
44079;BME280;29744;49.078;12.878;2023-04-15T06:55:08;95160.41;;;16.21;34.20
44079;BME280;29744;49.078;12.878;2023-04-15T07:00:09;95154.63;;;16.22;34.40
44079;BME280;29744;49.078;12.878;2023-04-15T07:05:11;95160.09;;;16.26;34.45
44079;BME280;29744;49.078;12.878;2023-04-15T07:10:11;95160.16;;;16.29;34.33
44079;BME280;29744;49.078;12.878;2023-04-15T07:15:13;95160.94;;;16.30;34.30
44079;BME280;29744;49.078;12.878;2023-04-15T07:20:14;95172.53;;;16.30;34.40
44079;BME280;29744;49.078;12.878;2023-04-15T07:25:14;95175.66;;;16.32;34.25
44079;BME280;29744;49.078;12.878;2023-04-15T07:30:14;95178.72;;;16.31;34.06
44079;BME280;29744;49.078;12.878;2023-04-15T07:35:15;95174.47;;;16.30;34.57
44079;BME280;29744;49.078;12.878;2023-04-15T07:40:15;95177.53;;;16.28;34.27
44079;BME280;29744;49.078;12.878;2023-04-15T07:45:15;95184.44;;;16.26;34.19
44079;BME280;29744;49.078;12.878;2023-04-15T07:50:16;95184.44;;;16.26;34.02
44079;BME280;29744;49.078;12.878;2023-04-15T07:55:16;95194.06;;;16.23;34.20
44079;BME280;29744;49.078;12.878;2023-04-15T08:00:19;95183.97;;;16.20;34.48
44079;BME280;29744;49.078;12.878;2023-04-15T08:05:19;95191.69;;;16.18;34.36
44079;BME280;29744;49.078;12.878;2023-04-15T08:10:19;95197.44;;;16.17;34.10
44079;BME280;29744;49.078;12.878;2023-04-15T08:15:20;95200.09;;;16.13;34.12
44079;BME280;29744;49.078;12.878;2023-04-15T08:20:20;95205.88;;;16.12;34.50
44079;BME280;29744;49.078;12.878;2023-04-15T08:25:20;95213.56;;;16.09;34.55
44079;BME280;29744;49.078;12.878;2023-04-15T08:30:21;95213.50;;;16.06;34.59
44079;BME280;29744;49.078;12.878;2023-04-15T08:35:21;95216.94;;;16.03;34.57
44079;BME280;29744;49.078;12.878;2023-04-15T08:40:24;95220.38;;;16.00;34.64
44079;BME280;29744;49.078;12.878;2023-04-15T08:45:32;95225.34;;;15.98;34.37
44079;BME280;29744;49.078;12.878;2023-04-15T08:50:32;95221.81;;;15.94;34.41
44079;BME280;29744;49.078;12.878;2023-04-15T08:55:35;95215.50;;;15.86;34.12
44079;BME280;29744;49.078;12.878;2023-04-15T09:00:35;95221.63;;;15.83;33.67
44079;BME280;29744;49.078;12.878;2023-04-15T09:05:37;95230.47;;;15.80;33.66
44079;BME280;29744;49.078;12.878;2023-04-15T09:10:37;95220.72;;;15.75;33.82
44079;BME280;29744;49.078;12.878;2023-04-15T09:15:37;95237.28;;;15.74;33.88
44079;BME280;29744;49.078;12.878;2023-04-15T09:20:41;95236.44;;;15.70;34.09
44079;BME280;29744;49.078;12.878;2023-04-15T09:25:41;95242.56;;;15.67;33.83
44079;BME280;29744;49.078;12.878;2023-04-15T09:30:42;95236.75;;;15.65;34.01
44079;BME280;29744;49.078;12.878;2023-04-15T09:36:05;95245.56;;;15.62;34.32
44079;BME280;29744;49.078;12.878;2023-04-15T09:41:15;95247.06;;;15.59;34.15
44079;BME280;29744;49.078;12.878;2023-04-15T09:46:18;95246.28;;;15.59;34.05
44079;BME280;29744;49.078;12.878;2023-04-15T09:51:33;95256.66;;;15.57;34.28
44079;BME280;29744;49.078;12.878;2023-04-15T09:56:35;95252.84;;;15.58;34.28
44079;BME280;29744;49.078;12.878;2023-04-15T10:01:41;95249.16;;;15.46;34.47
44079;BME280;29744;49.078;12.878;2023-04-15T10:06:42;95252.34;;;15.52;34.31
44079;BME280;29744;49.078;12.878;2023-04-15T10:11:43;95252.34;;;15.52;34.39
44079;BME280;29744;49.078;12.878;2023-04-15T10:16:46;95256.19;;;15.51;34.64
44079;BME280;29744;49.078;12.878;2023-04-15T10:21:48;95255.41;;;15.51;34.33
44079;BME280;29744;49.078;12.878;2023-04-15T10:26:50;95255.41;;;15.51;34.14
44079;BME280;29744;49.078;12.878;2023-04-15T10:31:51;95261.94;;;15.50;34.38
44079;BME280;29744;49.078;12.878;2023-04-15T10:36:55;95259.59;;;15.48;34.62
44079;BME280;29744;49.078;12.878;2023-04-15T10:42:08;95267.28;;;15.46;34.35
44079;BME280;29744;49.078;12.878;2023-04-15T10:47:13;95275.75;;;15.44;34.46
44079;BME280;29744;49.078;12.878;2023-04-15T10:52:23;95280.72;;;15.42;34.63
44079;BME280;29744;49.078;12.878;2023-04-15T10:57:23;95274.91;;;15.40;34.58
44079;BME280;29744;49.078;12.878;2023-04-15T11:02:44;95271.34;;;15.36;34.64
44079;BME280;29744;49.078;12.878;2023-04-15T11:18:17;95288.97;;;15.30;34.90
44079;BME280;29744;49.078;12.878;2023-04-15T11:23:19;95300.13;;;15.29;34.92
44079;BME280;29744;49.078;12.878;2023-04-15T11:28:19;95300.84;;;15.26;34.49
44079;BME280;29744;49.078;12.878;2023-04-15T11:33:20;95310.44;;;15.23;34.98
44079;BME280;29744;49.078;12.878;2023-04-15T11:38:21;95311.94;;;15.21;35.00
44079;BME280;29744;49.078;12.878;2023-04-15T11:43:22;95316.56;;;15.20;34.97
44079;BME280;29744;49.078;12.878;2023-04-15T11:48:24;95320.75;;;15.18;34.53
44079;BME280;29744;49.078;12.878;2023-04-15T11:53:44;95317.19;;;15.13;34.55
44079;BME280;29744;49.078;12.878;2023-04-15T11:58:45;95323.72;;;15.12;34.67
44079;BME280;29744;49.078;12.878;2023-04-15T12:03:47;95326.44;;;15.12;35.05
44079;BME280;29744;49.078;12.878;2023-04-15T12:13:56;95336.00;;;15.10;35.06
44079;BME280;29744;49.078;12.878;2023-04-15T12:18:58;95333.66;;;15.08;34.92
44079;BME280;29744;49.078;12.878;2023-04-15T12:24:01;95344.03;;;15.06;34.97
44079;BME280;29744;49.078;12.878;2023-04-15T12:29:06;95353.28;;;15.05;35.21
44079;BME280;29744;49.078;12.878;2023-04-15T12:34:07;95357.47;;;15.03;35.04
44079;BME280;29744;49.078;12.878;2023-04-15T12:39:08;95361.25;;;15.02;35.13
44079;BME280;29744;49.078;12.878;2023-04-15T12:44:08;95367.03;;;15.00;35.12
44079;BME280;29744;49.078;12.878;2023-04-15T12:49:09;95374.69;;;14.98;34.98
44079;BME280;29744;49.078;12.878;2023-04-15T12:54:09;95379.31;;;14.98;34.80
44079;BME280;29744;49.078;12.878;2023-04-15T12:59:09;95379.31;;;14.98;34.89
44079;BME280;29744;49.078;12.878;2023-04-15T13:04:10;95392.38;;;14.96;35.33
44079;BME280;29744;49.078;12.878;2023-04-15T13:09:10;95389.66;;;14.96;35.19
44079;BME280;29744;49.078;12.878;2023-04-15T13:14:10;95393.94;;;14.97;35.14
44079;BME280;29744;49.078;12.878;2023-04-15T13:19:11;95401.34;;;15.00;35.16
44079;BME280;29744;49.078;12.878;2023-04-15T13:24:12;95409.19;;;15.05;35.21
44079;BME280;29744;49.078;12.878;2023-04-15T13:29:12;95416.25;;;15.09;34.97
44079;BME280;29744;49.078;12.878;2023-04-15T13:34:13;95415.25;;;15.18;34.74
44079;BME280;29744;49.078;12.878;2023-04-15T13:39:13;95420.03;;;15.24;35.11
44079;BME280;29744;49.078;12.878;2023-04-15T13:44:13;95424.91;;;15.34;34.73
44079;BME280;29744;49.078;12.878;2023-04-15T13:49:13;95425.13;;;15.45;34.96
44079;BME280;29744;49.078;12.878;2023-04-15T13:54:14;95428.06;;;15.56;34.96
44079;BME280;29744;49.078;12.878;2023-04-15T13:59:14;95423.28;;;15.68;34.86
44079;BME280;29744;49.078;12.878;2023-04-15T14:04:15;95431.63;;;15.79;34.82
44079;BME280;29744;49.078;12.878;2023-04-15T14:09:15;95433.78;;;15.89;34.42
44079;BME280;29744;49.078;12.878;2023-04-15T14:14:15;95440.19;;;16.00;34.51
44079;BME280;29744;49.078;12.878;2023-04-15T14:19:16;95441.09;;;16.08;34.78
44079;BME280;29744;49.078;12.878;2023-04-15T14:24:16;95451.28;;;16.15;34.33
44079;BME280;29744;49.078;12.878;2023-04-15T14:29:16;95455.25;;;16.21;34.64
44079;BME280;29744;49.078;12.878;2023-04-15T14:34:17;95460.38;;;16.26;34.54
44079;BME280;29744;49.078;12.878;2023-04-15T14:39:17;95470.47;;;16.29;34.52
44079;BME280;29744;49.078;12.878;2023-04-15T14:44:18;95479.44;;;16.33;34.02
44079;BME280;29744;49.078;12.878;2023-04-15T14:49:18;95482.94;;;16.33;34.18
44079;BME280;29744;49.078;12.878;2023-04-15T14:54:18;95489.56;;;16.36;34.13
44079;BME280;29744;49.078;12.878;2023-04-15T14:59:19;95492.25;;;16.36;34.42
44079;BME280;29744;49.078;12.878;2023-04-15T15:04:19;95495.31;;;16.34;34.51
44079;BME280;29744;49.078;12.878;2023-04-15T15:09:19;95510.41;;;16.35;34.11
44079;BME280;29744;49.078;12.878;2023-04-15T15:14:22;95508.06;;;16.34;34.15
44079;BME280;29744;49.078;12.878;2023-04-15T15:19:23;95513.84;;;16.32;34.31
44079;BME280;29744;49.078;12.878;2023-04-15T15:24:23;95519.19;;;16.29;34.43
44079;BME280;29744;49.078;12.878;2023-04-15T15:29:24;95518.75;;;16.27;34.40
44079;BME280;29744;49.078;12.878;2023-04-15T15:34:24;95526.00;;;16.23;34.33
44079;BME280;29744;49.078;12.878;2023-04-15T15:39:24;95535.63;;;16.20;34.35
44079;BME280;29744;49.078;12.878;2023-04-15T15:44:25;95532.06;;;16.16;34.09
44079;BME280;29744;49.078;12.878;2023-04-15T15:49:25;95537.06;;;16.14;34.62
44079;BME280;29744;49.078;12.878;2023-04-15T15:54:27;95547.44;;;16.12;34.61
44079;BME280;29744;49.078;12.878;2023-04-15T15:59:28;95550.84;;;16.09;34.43
44079;BME280;29744;49.078;12.878;2023-04-15T16:04:28;95565.50;;;16.08;34.29
44079;BME280;29744;49.078;12.878;2023-04-15T16:09:29;95571.28;;;16.06;34.68
44079;BME280;29744;49.078;12.878;2023-04-15T16:14:29;95578.19;;;16.04;34.43
44079;BME280;29744;49.078;12.878;2023-04-15T16:19:29;95579.31;;;16.03;34.62
44079;BME280;29744;49.078;12.878;2023-04-15T16:24:31;95583.94;;;16.02;34.43
44079;BME280;29744;49.078;12.878;2023-04-15T16:29:32;95588.56;;;16.02;34.31
44079;BME280;29744;49.078;12.878;2023-04-15T16:34:33;95587.00;;;16.01;34.23
44079;BME280;29744;49.078;12.878;2023-04-15T16:39:34;95595.47;;;15.99;34.12
44079;BME280;29744;49.078;12.878;2023-04-15T16:44:35;95602.00;;;15.98;34.19
44079;BME280;29744;49.078;12.878;2023-04-15T16:49:35;95607.78;;;15.97;34.34
44079;BME280;29744;49.078;12.878;2023-04-15T16:54:35;95616.16;;;15.92;34.47
44079;BME280;29744;49.078;12.878;2023-04-15T16:59:40;95628.91;;;15.91;34.54
44079;BME280;29744;49.078;12.878;2023-04-15T17:04:43;95636.56;;;15.89;34.27
44079;BME280;29744;49.078;12.878;2023-04-15T17:09:43;95641.53;;;15.87;34.35
44079;BME280;29744;49.078;12.878;2023-04-15T17:14:44;95651.16;;;15.85;34.57
44079;BME280;29744;49.078;12.878;2023-04-15T17:19:44;95659.59;;;15.83;34.56
44079;BME280;29744;49.078;12.878;2023-04-15T17:24:44;95672.22;;;15.79;34.34
44079;BME280;29744;49.078;12.878;2023-04-15T17:29:45;95680.69;;;15.77;34.47
44079;BME280;29744;49.078;12.878;2023-04-15T17:34:45;95684.09;;;15.74;34.67
44079;BME280;29744;49.078;12.878;2023-04-15T17:39:45;95688.28;;;15.72;34.51
44079;BME280;29744;49.078;12.878;2023-04-15T17:44:45;95694.38;;;15.69;34.36
44079;BME280;29744;49.078;12.878;2023-04-15T17:49:46;95696.63;;;15.67;34.72
44079;BME280;29744;49.078;12.878;2023-04-15T17:54:46;95708.16;;;15.64;34.59
44079;BME280;29744;49.078;12.878;2023-04-15T17:59:48;95715.81;;;15.62;34.95
44079;BME280;29744;49.078;12.878;2023-04-15T18:04:48;95724.63;;;15.59;34.93
44079;BME280;29744;49.078;12.878;2023-04-15T18:09:48;95735.00;;;15.57;34.75
44079;BME280;29744;49.078;12.878;2023-04-15T18:14:49;95747.38;;;15.58;35.05
44079;BME280;29744;49.078;12.878;2023-04-15T18:19:49;95754.69;;;15.57;34.84
44079;BME280;29744;49.078;12.878;2023-04-15T18:24:50;95764.38;;;15.58;34.76
44079;BME280;29744;49.078;12.878;2023-04-15T18:29:50;95778.31;;;15.60;34.67
44079;BME280;29744;49.078;12.878;2023-04-15T18:34:51;95783.03;;;15.63;34.87
44079;BME280;29744;49.078;12.878;2023-04-15T18:39:51;95790.81;;;15.65;34.81
44079;BME280;29744;49.078;12.878;2023-04-15T18:44:54;95795.53;;;15.68;34.71
44079;BME280;29744;49.078;12.878;2023-04-15T18:49:54;95793.25;;;15.70;34.86
44079;BME280;29744;49.078;12.878;2023-04-15T18:54:54;95811.47;;;15.73;35.08
44079;BME280;29744;49.078;12.878;2023-04-15T18:59:54;95821.94;;;15.74;34.75
44079;BME280;29744;49.078;12.878;2023-04-15T19:04:55;95821.59;;;15.76;34.73
44079;BME280;29744;49.078;12.878;2023-04-15T19:09:55;95825.88;;;15.77;34.98
44079;BME280;29744;49.078;12.878;2023-04-15T19:14:55;95834.78;;;15.77;34.42
44079;BME280;29744;49.078;12.878;2023-04-15T19:19:56;95838.28;;;15.78;34.85
44079;BME280;29744;49.078;12.878;2023-04-15T19:24:56;95838.28;;;15.78;34.45
44079;BME280;29744;49.078;12.878;2023-04-15T19:29:56;95848.63;;;15.76;34.60
44079;BME280;29744;49.078;12.878;2023-04-15T19:34:57;95862.16;;;15.76;34.42
44079;BME280;29744;49.078;12.878;2023-04-15T19:39:57;95855.97;;;15.75;34.84
44079;BME280;29744;49.078;12.878;2023-04-15T19:44:57;95860.59;;;15.75;34.44
44079;BME280;29744;49.078;12.878;2023-04-15T19:49:57;95865.22;;;15.74;34.84
44079;BME280;29744;49.078;12.878;2023-04-15T19:54:58;95869.81;;;15.74;34.46
44079;BME280;29744;49.078;12.878;2023-04-15T19:59:58;95874.34;;;15.70;34.95
44079;BME280;29744;49.078;12.878;2023-04-15T20:04:58;95878.19;;;15.69;34.64
44079;BME280;29744;49.078;12.878;2023-04-15T20:09:59;95876.97;;;15.66;35.00
44079;BME280;29744;49.078;12.878;2023-04-15T20:14:59;95885.41;;;15.65;34.97
44079;BME280;29744;49.078;12.878;2023-04-15T20:19:59;95882.25;;;15.63;34.85
44079;BME280;29744;49.078;12.878;2023-04-15T20:25:00;95889.94;;;15.61;34.73
44079;BME280;29744;49.078;12.878;2023-04-15T20:30:01;95892.19;;;15.59;34.86
44079;BME280;29744;49.078;12.878;2023-04-15T20:35:04;95900.63;;;15.57;34.54
44079;BME280;29744;49.078;12.878;2023-04-15T20:40:06;95904.81;;;15.55;34.60
44079;BME280;29744;49.078;12.878;2023-04-15T20:45:07;95903.25;;;15.54;34.63
44079;BME280;29744;49.078;12.878;2023-04-15T20:50:08;95903.13;;;15.50;35.05
44079;BME280;29744;49.078;12.878;2023-04-15T20:55:08;95918.56;;;15.50;34.85
44079;BME280;29744;49.078;12.878;2023-04-15T21:00:09;95922.75;;;15.47;34.85
44079;BME280;29744;49.078;12.878;2023-04-15T21:05:10;95924.22;;;15.44;34.71
44079;BME280;29744;49.078;12.878;2023-04-15T21:10:10;95928.81;;;15.44;34.95
44079;BME280;29744;49.078;12.878;2023-04-15T21:15:11;95934.91;;;15.41;34.91
44079;BME280;29744;49.078;12.878;2023-04-15T21:20:11;95932.56;;;15.39;35.01
44079;BME280;29744;49.078;12.878;2023-04-15T21:25:12;95945.63;;;15.37;35.38
44079;BME280;29744;49.078;12.878;2023-04-15T21:30:12;95947.09;;;15.35;34.71
44079;BME280;29744;49.078;12.878;2023-04-15T21:35:12;95956.31;;;15.34;35.08
44079;BME280;29744;49.078;12.878;2023-04-15T21:40:12;95963.19;;;15.31;35.10
44079;BME280;29744;49.078;12.878;2023-04-15T21:45:15;95968.13;;;15.29;34.83
44079;BME280;29744;49.078;12.878;2023-04-15T21:50:15;95981.97;;;15.28;35.13
44079;BME280;29744;49.078;12.878;2023-04-15T21:55:15;95977.25;;;15.25;35.24
44079;BME280;29744;49.078;12.878;2023-04-15T22:00:16;95985.69;;;15.23;35.14
44079;BME280;29744;49.078;12.878;2023-04-15T22:05:16;95984.47;;;15.21;34.94
44079;BME280;29744;49.078;12.878;2023-04-15T22:10:17;95993.69;;;15.20;35.22
44079;BME280;29744;49.078;12.878;2023-04-15T22:15:18;95998.66;;;15.18;35.47
44079;BME280;29744;49.078;12.878;2023-04-15T22:20:18;95995.50;;;15.16;34.99
44079;BME280;29744;49.078;12.878;2023-04-15T22:25:19;95999.31;;;15.14;35.16
44079;BME280;29744;49.078;12.878;2023-04-15T22:30:19;96006.97;;;15.12;35.37
44079;BME280;29744;49.078;12.878;2023-04-15T22:35:19;96015.75;;;15.09;35.59
44079;BME280;29744;49.078;12.878;2023-04-15T22:40:20;96018.00;;;15.07;35.24
44079;BME280;29744;49.078;12.878;2023-04-15T22:45:20;96029.94;;;15.06;35.54
44079;BME280;29744;49.078;12.878;2023-04-15T22:50:20;96038.38;;;15.05;35.68
44079;BME280;29744;49.078;12.878;2023-04-15T22:55:21;96035.22;;;15.03;35.18
44079;BME280;29744;49.078;12.878;2023-04-15T23:00:21;96032.81;;;15.01;35.36
44079;BME280;29744;49.078;12.878;2023-04-15T23:05:21;96036.63;;;15.00;35.47
44079;BME280;29744;49.078;12.878;2023-04-15T23:10:22;96040.00;;;14.97;35.14
44079;BME280;29744;49.078;12.878;2023-04-15T23:15:22;96041.13;;;14.96;35.23
44079;BME280;29744;49.078;12.878;2023-04-15T23:20:22;96045.75;;;14.96;35.59
44079;BME280;29744;49.078;12.878;2023-04-15T23:25:23;96053.41;;;14.94;35.45
44079;BME280;29744;49.078;12.878;2023-04-15T23:30:23;96054.06;;;14.91;35.46
44079;BME280;29744;49.078;12.878;2023-04-15T23:35:24;96066.78;;;14.90;35.55
44079;BME280;29744;49.078;12.878;2023-04-15T23:40:24;96067.91;;;14.89;35.24
44079;BME280;29744;49.078;12.878;2023-04-15T23:45:25;96068.22;;;14.88;35.62
44079;BME280;29744;49.078;12.878;2023-04-15T23:50:26;96065.09;;;14.86;35.61
44079;BME280;29744;49.078;12.878;2023-04-15T23:55:28;96066.19;;;14.85;35.70
